sensor_id;sensor_type;location;lat;lon;timestamp;pressure;altitude;pressure_sealevel;temperature;humidity
72096;BME280;59968;51.084;16.748;2024-01-11T00:01:35;101608.31;;;-6.28;62.53
72096;BME280;59968;51.084;16.748;2024-01-11T00:04:04;101601.81;;;-6.30;62.42
72096;BME280;59968;51.084;16.748;2024-01-11T00:06:33;101599.02;;;-6.32;62.49
72096;BME280;59968;51.084;16.748;2024-01-11T00:09:08;101603.82;;;-6.30;62.76
72096;BME280;59968;51.084;16.748;2024-01-11T00:11:37;101601.36;;;-6.27;63.17
72096;BME280;59968;51.084;16.748;2024-01-11T00:14:06;101602.06;;;-6.22;63.09
72096;BME280;59968;51.084;16.748;2024-01-11T00:16:36;101604.65;;;-6.19;63.43
72096;BME280;59968;51.084;16.748;2024-01-11T00:19:05;101601.69;;;-6.22;63.57
72096;BME280;59968;51.084;16.748;2024-01-11T00:21:34;101594.70;;;-6.24;64.01
72096;BME280;59968;51.084;16.748;2024-01-11T00:24:04;101590.56;;;-6.26;63.90
72096;BME280;59968;51.084;16.748;2024-01-11T00:26:33;101587.66;;;-6.25;64.02
72096;BME280;59968;51.084;16.748;2024-01-11T00:29:02;101590.44;;;-6.22;64.30
72096;BME280;59968;51.084;16.748;2024-01-11T00:31:31;101594.02;;;-6.18;64.15
72096;BME280;59968;51.084;16.748;2024-01-11T00:34:00;101586.77;;;-6.14;64.00
72096;BME280;59968;51.084;16.748;2024-01-11T00:36:28;101576.34;;;-6.09;64.09
72096;BME280;59968;51.084;16.748;2024-01-11T00:38:57;101578.38;;;-6.05;64.36
72096;BME280;59968;51.084;16.748;2024-01-11T00:41:26;101582.81;;;-6.02;63.84
72096;BME280;59968;51.084;16.748;2024-01-11T00:43:55;101585.16;;;-5.97;63.71
72096;BME280;59968;51.084;16.748;2024-01-11T00:46:23;101573.22;;;-5.92;63.56
72096;BME280;59968;51.084;16.748;2024-01-11T00:48:52;101560.73;;;-5.91;63.60
72096;BME280;59968;51.084;16.748;2024-01-11T00:51:24;101558.89;;;-5.92;63.51
72096;BME280;59968;51.084;16.748;2024-01-11T00:53:52;101561.17;;;-5.89;63.70
72096;BME280;59968;51.084;16.748;2024-01-11T00:56:21;101545.73;;;-5.86;63.71
72096;BME280;59968;51.084;16.748;2024-01-11T00:58:49;101545.42;;;-5.83;64.08
72096;BME280;59968;51.084;16.748;2024-01-11T01:01:18;101542.66;;;-5.81;64.06
72096;BME280;59968;51.084;16.748;2024-01-11T01:03:47;101547.70;;;-5.77;63.92
72096;BME280;59968;51.084;16.748;2024-01-11T01:06:16;101545.90;;;-5.78;64.35
72096;BME280;59968;51.084;16.748;2024-01-11T01:08:45;101548.79;;;-5.74;64.29
72096;BME280;59968;51.084;16.748;2024-01-11T01:11:13;101545.23;;;-5.74;63.98
72096;BME280;59968;51.084;16.748;2024-01-11T01:13:42;101533.09;;;-5.73;64.22
72096;BME280;59968;51.084;16.748;2024-01-11T01:16:10;101532.36;;;-5.71;64.34
72096;BME280;59968;51.084;16.748;2024-01-11T01:18:38;101539.44;;;-5.67;64.07
72096;BME280;59968;51.084;16.748;2024-01-11T01:21:07;101538.02;;;-5.70;64.12
72096;BME280;59968;51.084;16.748;2024-01-11T01:23:35;101535.94;;;-5.77;64.29
72096;BME280;59968;51.084;16.748;2024-01-11T01:26:03;101536.94;;;-5.81;64.50
72096;BME280;59968;51.084;16.748;2024-01-11T01:28:34;101535.72;;;-5.84;64.29
72096;BME280;59968;51.084;16.748;2024-01-11T01:31:04;101525.49;;;-5.90;64.29
72096;BME280;59968;51.084;16.748;2024-01-11T01:33:33;101520.55;;;-5.94;64.47
72096;BME280;59968;51.084;16.748;2024-01-11T01:36:01;101516.89;;;-5.95;64.54
72096;BME280;59968;51.084;16.748;2024-01-11T01:38:31;101520.99;;;-5.96;64.63
72096;BME280;59968;51.084;16.748;2024-01-11T01:40:59;101524.63;;;-5.99;64.63
72096;BME280;59968;51.084;16.748;2024-01-11T01:43:28;101529.61;;;-6.02;64.59
72096;BME280;59968;51.084;16.748;2024-01-11T01:45:56;101536.20;;;-6.07;65.06
72096;BME280;59968;51.084;16.748;2024-01-11T01:48:26;101542.57;;;-6.11;65.18
72096;BME280;59968;51.084;16.748;2024-01-11T01:50:55;101538.75;;;-6.12;65.22
72096;BME280;59968;51.084;16.748;2024-01-11T01:53:27;101523.80;;;-6.13;65.10
72096;BME280;59968;51.084;16.748;2024-01-11T01:55:57;101517.91;;;-6.04;65.14
72096;BME280;59968;51.084;16.748;2024-01-11T01:58:25;101516.50;;;-6.03;65.16
72096;BME280;59968;51.084;16.748;2024-01-11T02:00:54;101520.27;;;-5.95;65.21
72096;BME280;59968;51.084;16.748;2024-01-11T02:03:24;101528.23;;;-5.91;65.14
72096;BME280;59968;51.084;16.748;2024-01-11T02:05:55;101526.17;;;-5.86;65.12
72096;BME280;59968;51.084;16.748;2024-01-11T02:08:25;101537.52;;;-5.79;64.84
72096;BME280;59968;51.084;16.748;2024-01-11T02:10:56;101538.52;;;-5.74;64.94
72096;BME280;59968;51.084;16.748;2024-01-11T02:13:25;101543.39;;;-5.69;64.77
72096;BME280;59968;51.084;16.748;2024-01-11T02:15:53;101546.47;;;-5.70;64.75
72096;BME280;59968;51.084;16.748;2024-01-11T02:18:23;101541.92;;;-5.75;64.80
72096;BME280;59968;51.084;16.748;2024-01-11T02:20:52;101543.16;;;-5.81;64.80
72096;BME280;59968;51.084;16.748;2024-01-11T02:23:21;101543.79;;;-5.84;65.14
72096;BME280;59968;51.084;16.748;2024-01-11T02:25:52;101533.42;;;-5.86;65.39
72096;BME280;59968;51.084;16.748;2024-01-11T02:28:21;101528.50;;;-5.85;65.20
72096;BME280;59968;51.084;16.748;2024-01-11T02:30:52;101521.20;;;-5.84;65.24
72096;BME280;59968;51.084;16.748;2024-01-11T02:33:22;101525.78;;;-5.80;65.07
72096;BME280;59968;51.084;16.748;2024-01-11T02:35:50;101527.80;;;-5.76;65.09
72096;BME280;59968;51.084;16.748;2024-01-11T02:38:19;101520.98;;;-5.69;64.84
72096;BME280;59968;51.084;16.748;2024-01-11T02:40:49;101522.48;;;-5.64;64.74
72096;BME280;59968;51.084;16.748;2024-01-11T02:43:18;101522.36;;;-5.61;64.63
72096;BME280;59968;51.084;16.748;2024-01-11T02:45:49;101511.55;;;-5.56;64.58
72096;BME280;59968;51.084;16.748;2024-01-11T02:48:17;101505.94;;;-5.50;64.37
72096;BME280;59968;51.084;16.748;2024-01-11T02:50:48;101493.41;;;-5.44;64.49
72096;BME280;59968;51.084;16.748;2024-01-11T02:53:17;101483.43;;;-5.39;64.41
72096;BME280;59968;51.084;16.748;2024-01-11T02:55:45;101482.65;;;-5.37;64.15
72096;BME280;59968;51.084;16.748;2024-01-11T02:58:14;101477.52;;;-5.35;64.07
72096;BME280;59968;51.084;16.748;2024-01-11T03:00:42;101480.88;;;-5.29;63.81
72096;BME280;59968;51.084;16.748;2024-01-11T03:03:10;101472.73;;;-5.28;63.72
72096;BME280;59968;51.084;16.748;2024-01-11T03:05:39;101470.89;;;-5.24;63.60
72096;BME280;59968;51.084;16.748;2024-01-11T03:08:09;101470.11;;;-5.22;63.72
72096;BME280;59968;51.084;16.748;2024-01-11T03:10:37;101466.84;;;-5.20;63.67
72096;BME280;59968;51.084;16.748;2024-01-11T03:13:09;101463.68;;;-5.17;63.48
72096;BME280;59968;51.084;16.748;2024-01-11T03:15:37;101461.83;;;-5.17;63.51
72096;BME280;59968;51.084;16.748;2024-01-11T03:18:06;101457.20;;;-5.15;63.40
72096;BME280;59968;51.084;16.748;2024-01-11T03:20:36;101454.28;;;-5.14;63.35
72096;BME280;59968;51.084;16.748;2024-01-11T03:23:04;101443.55;;;-5.15;63.58
72096;BME280;59968;51.084;16.748;2024-01-11T03:25:33;101447.29;;;-5.12;63.57
72096;BME280;59968;51.084;16.748;2024-01-11T03:28:02;101450.48;;;-5.12;63.44
72096;BME280;59968;51.084;16.748;2024-01-11T03:30:32;101451.15;;;-5.07;63.31
72096;BME280;59968;51.084;16.748;2024-01-11T03:33:00;101449.15;;;-5.04;63.35
72096;BME280;59968;51.084;16.748;2024-01-11T03:35:29;101453.21;;;-5.00;63.48
72096;BME280;59968;51.084;16.748;2024-01-11T03:37:58;101466.23;;;-4.97;63.22
72096;BME280;59968;51.084;16.748;2024-01-11T03:40:26;101463.48;;;-4.99;62.89
72096;BME280;59968;51.084;16.748;2024-01-11T03:42:55;101464.32;;;-5.03;62.76
72096;BME280;59968;51.084;16.748;2024-01-11T03:45:23;101465.33;;;-5.08;62.77
72096;BME280;59968;51.084;16.748;2024-01-11T03:47:52;101455.75;;;-5.17;62.83
72096;BME280;59968;51.084;16.748;2024-01-11T03:50:20;101453.67;;;-5.24;63.18
72096;BME280;59968;51.084;16.748;2024-01-11T03:52:49;101451.31;;;-5.29;63.19
72096;BME280;59968;51.084;16.748;2024-01-11T03:55:17;101443.79;;;-5.30;63.10
72096;BME280;59968;51.084;16.748;2024-01-11T03:57:46;101452.25;;;-5.31;63.11
72096;BME280;59968;51.084;16.748;2024-01-11T04:00:15;101460.39;;;-5.32;63.12
72096;BME280;59968;51.084;16.748;2024-01-11T04:02:44;101474.87;;;-5.36;63.03
72096;BME280;59968;51.084;16.748;2024-01-11T04:05:12;101478.15;;;-5.38;63.21
72096;BME280;59968;51.084;16.748;2024-01-11T04:07:41;101483.45;;;-5.36;63.34
72096;BME280;59968;51.084;16.748;2024-01-11T04:10:17;101479.34;;;-5.34;63.37
72096;BME280;59968;51.084;16.748;2024-01-11T04:12:46;101470.94;;;-5.34;63.09
72096;BME280;59968;51.084;16.748;2024-01-11T04:15:15;101468.75;;;-5.34;63.08
72096;BME280;59968;51.084;16.748;2024-01-11T04:17:44;101462.60;;;-5.32;63.29
72096;BME280;59968;51.084;16.748;2024-01-11T04:20:13;101461.95;;;-5.29;63.22
72096;BME280;59968;51.084;16.748;2024-01-11T04:22:42;101465.86;;;-5.25;63.20
72096;BME280;59968;51.084;16.748;2024-01-11T04:25:10;101466.38;;;-5.21;62.94
72096;BME280;59968;51.084;16.748;2024-01-11T04:27:39;101458.55;;;-5.19;62.91
72096;BME280;59968;51.084;16.748;2024-01-11T04:30:08;101457.05;;;-5.16;62.98
72096;BME280;59968;51.084;16.748;2024-01-11T04:32:37;101451.24;;;-5.14;62.76
72096;BME280;59968;51.084;16.748;2024-01-11T04:35:06;101450.77;;;-5.11;62.57
72096;BME280;59968;51.084;16.748;2024-01-11T04:37:35;101450.75;;;-5.10;62.61
72096;BME280;59968;51.084;16.748;2024-01-11T04:40:04;101450.70;;;-5.09;62.57
72096;BME280;59968;51.084;16.748;2024-01-11T04:42:33;101449.77;;;-5.06;62.54
72096;BME280;59968;51.084;16.748;2024-01-11T04:45:02;101453.52;;;-5.04;62.52
72096;BME280;59968;51.084;16.748;2024-01-11T04:47:33;101457.58;;;-4.99;62.20
72096;BME280;59968;51.084;16.748;2024-01-11T04:50:01;101461.32;;;-5.00;62.06
72096;BME280;59968;51.084;16.748;2024-01-11T04:52:30;101453.98;;;-5.02;61.95
72096;BME280;59968;51.084;16.748;2024-01-11T04:54:58;101447.64;;;-5.04;62.18
72096;BME280;59968;51.084;16.748;2024-01-11T04:57:27;101449.33;;;-5.04;62.09
72096;BME280;59968;51.084;16.748;2024-01-11T04:59:56;101451.73;;;-5.01;62.05
72096;BME280;59968;51.084;16.748;2024-01-11T05:02:29;101454.23;;;-4.96;61.86
72096;BME280;59968;51.084;16.748;2024-01-11T05:04:58;101445.24;;;-4.91;62.08
72096;BME280;59968;51.084;16.748;2024-01-11T05:07:27;101437.23;;;-4.85;62.07
72096;BME280;59968;51.084;16.748;2024-01-11T05:09:55;101426.11;;;-4.78;61.82
72096;BME280;59968;51.084;16.748;2024-01-11T05:12:24;101423.86;;;-4.72;61.69
72096;BME280;59968;51.084;16.748;2024-01-11T05:14:53;101417.65;;;-4.73;61.90
72096;BME280;59968;51.084;16.748;2024-01-11T05:17:21;101415.27;;;-4.61;61.96
72096;BME280;59968;51.084;16.748;2024-01-11T05:19:50;101405.13;;;-4.56;61.92
72096;BME280;59968;51.084;16.748;2024-01-11T05:22:19;101403.94;;;-4.52;62.21
72096;BME280;59968;51.084;16.748;2024-01-11T05:24:47;101398.94;;;-4.50;62.28
72096;BME280;59968;51.084;16.748;2024-01-11T05:27:15;101381.91;;;-4.47;62.69
72096;BME280;59968;51.084;16.748;2024-01-11T05:29:44;101386.98;;;-4.43;62.68
72096;BME280;59968;51.084;16.748;2024-01-11T05:32:12;101394.15;;;-4.37;62.58
72096;BME280;59968;51.084;16.748;2024-01-11T05:34:41;101392.22;;;-4.32;62.74
72096;BME280;59968;51.084;16.748;2024-01-11T05:37:09;101393.26;;;-4.28;62.86
72096;BME280;59968;51.084;16.748;2024-01-11T05:39:38;101383.20;;;-4.26;63.21
72096;BME280;59968;51.084;16.748;2024-01-11T05:42:07;101363.71;;;-4.21;63.42
72096;BME280;59968;51.084;16.748;2024-01-11T05:44:35;101349.25;;;-4.15;63.48
72096;BME280;59968;51.084;16.748;2024-01-11T05:47:04;101334.98;;;-4.10;63.64
72096;BME280;59968;51.084;16.748;2024-01-11T05:49:33;101332.30;;;-4.03;63.49
72096;BME280;59968;51.084;16.748;2024-01-11T05:52:01;101329.86;;;-3.98;63.25
72096;BME280;59968;51.084;16.748;2024-01-11T05:54:30;101325.39;;;-3.92;63.07
72096;BME280;59968;51.084;16.748;2024-01-11T05:56:59;101318.86;;;-3.87;63.28
72096;BME280;59968;51.084;16.748;2024-01-11T05:59:28;101310.02;;;-3.82;63.14
72096;BME280;59968;51.084;16.748;2024-01-11T06:01:56;101319.73;;;-3.87;63.12
72096;BME280;59968;51.084;16.748;2024-01-11T06:04:28;101343.35;;;-3.87;63.47
72096;BME280;59968;51.084;16.748;2024-01-11T06:06:58;101347.15;;;-3.92;63.81
72096;BME280;59968;51.084;16.748;2024-01-11T06:09:26;101340.38;;;-3.95;63.89
72096;BME280;59968;51.084;16.748;2024-01-11T06:11:55;101341.64;;;-3.93;64.35
72096;BME280;59968;51.084;16.748;2024-01-11T06:14:23;101351.40;;;-3.89;64.69
72096;BME280;59968;51.084;16.748;2024-01-11T06:16:51;101352.38;;;-3.81;65.00
72096;BME280;59968;51.084;16.748;2024-01-11T06:19:20;101346.61;;;-3.74;65.25
72096;BME280;59968;51.084;16.748;2024-01-11T06:21:49;101334.23;;;-3.73;64.98
72096;BME280;59968;51.084;16.748;2024-01-11T06:24:17;101328.64;;;-3.62;64.99
72096;BME280;59968;51.084;16.748;2024-01-11T06:26:46;101315.69;;;-3.56;64.82
72096;BME280;59968;51.084;16.748;2024-01-11T06:29:15;101314.41;;;-3.51;64.80
72096;BME280;59968;51.084;16.748;2024-01-11T06:31:43;101327.22;;;-3.47;64.52
72096;BME280;59968;51.084;16.748;2024-01-11T06:34:12;101332.10;;;-3.43;64.84
72096;BME280;59968;51.084;16.748;2024-01-11T06:36:40;101325.30;;;-3.43;64.97
72096;BME280;59968;51.084;16.748;2024-01-11T06:39:09;101318.52;;;-3.38;64.84
72096;BME280;59968;51.084;16.748;2024-01-11T06:41:38;101321.39;;;-3.32;64.58
72096;BME280;59968;51.084;16.748;2024-01-11T06:44:08;101329.95;;;-3.24;64.33
72096;BME280;59968;51.084;16.748;2024-01-11T06:46:37;101330.20;;;-3.15;64.39
72096;BME280;59968;51.084;16.748;2024-01-11T06:49:08;101332.30;;;-3.07;64.54
72096;BME280;59968;51.084;16.748;2024-01-11T06:51:37;101339.88;;;-2.99;64.39
72096;BME280;59968;51.084;16.748;2024-01-11T06:54:08;101338.14;;;-2.92;64.44
72096;BME280;59968;51.084;16.748;2024-01-11T06:56:38;101335.48;;;-2.83;64.33
72096;BME280;59968;51.084;16.748;2024-01-11T06:59:07;101342.22;;;-2.76;64.51
72096;BME280;59968;51.084;16.748;2024-01-11T07:01:35;101342.06;;;-2.70;64.67
72096;BME280;59968;51.084;16.748;2024-01-11T07:04:04;101342.34;;;-2.62;64.63
72096;BME280;59968;51.084;16.748;2024-01-11T07:06:34;101342.09;;;-2.54;64.32
72096;BME280;59968;51.084;16.748;2024-01-11T07:09:03;101332.77;;;-2.47;64.08
72096;BME280;59968;51.084;16.748;2024-01-11T07:11:32;101328.75;;;-2.42;63.85
72096;BME280;59968;51.084;16.748;2024-01-11T07:14:02;101320.70;;;-2.37;63.58
72096;BME280;59968;51.084;16.748;2024-01-11T07:16:32;101316.34;;;-2.32;63.76
72096;BME280;59968;51.084;16.748;2024-01-11T07:19:01;101299.30;;;-2.27;63.59
72096;BME280;59968;51.084;16.748;2024-01-11T07:21:30;101286.66;;;-2.22;63.51
72096;BME280;59968;51.084;16.748;2024-01-11T07:24:00;101278.92;;;-2.17;63.38
72096;BME280;59968;51.084;16.748;2024-01-11T07:26:28;101291.46;;;-2.11;62.95
72096;BME280;59968;51.084;16.748;2024-01-11T07:28:57;101297.45;;;-2.06;62.85
72096;BME280;59968;51.084;16.748;2024-01-11T07:31:25;101302.76;;;-2.01;62.56
72096;BME280;59968;51.084;16.748;2024-01-11T07:33:54;101287.63;;;-1.97;62.42
72096;BME280;59968;51.084;16.748;2024-01-11T07:36:22;101276.65;;;-1.94;62.00
72096;BME280;59968;51.084;16.748;2024-01-11T07:38:51;101269.98;;;-1.93;61.69
72096;BME280;59968;51.084;16.748;2024-01-11T07:41:23;101267.71;;;-1.92;61.74
72096;BME280;59968;51.084;16.748;2024-01-11T07:43:52;101260.73;;;-1.89;61.91
72096;BME280;59968;51.084;16.748;2024-01-11T07:46:22;101260.15;;;-1.87;61.50
72096;BME280;59968;51.084;16.748;2024-01-11T07:49:06;101259.18;;;-1.91;61.61
72096;BME280;59968;51.084;16.748;2024-01-11T07:51:35;101255.08;;;-1.90;61.62
72096;BME280;59968;51.084;16.748;2024-01-11T07:54:03;101259.77;;;-1.89;61.62
72096;BME280;59968;51.084;16.748;2024-01-11T07:56:33;101260.52;;;-1.88;61.76
72096;BME280;59968;51.084;16.748;2024-01-11T07:59:03;101262.30;;;-1.86;61.69
72096;BME280;59968;51.084;16.748;2024-01-11T08:01:32;101251.77;;;-1.92;61.77
72096;BME280;59968;51.084;16.748;2024-01-11T08:04:04;101262.11;;;-1.83;61.76
72096;BME280;59968;51.084;16.748;2024-01-11T08:06:33;101257.13;;;-1.82;61.92
72096;BME280;59968;51.084;16.748;2024-01-11T08:09:03;101263.98;;;-1.80;62.02
72096;BME280;59968;51.084;16.748;2024-01-11T08:11:33;101263.11;;;-1.77;62.22
72096;BME280;59968;51.084;16.748;2024-01-11T08:14:05;101250.33;;;-1.82;62.17
72096;BME280;59968;51.084;16.748;2024-01-11T08:16:35;101267.17;;;-1.74;62.39
72096;BME280;59968;51.084;16.748;2024-01-11T08:19:04;101271.45;;;-1.72;62.75
72096;BME280;59968;51.084;16.748;2024-01-11T08:21:33;101260.24;;;-1.68;62.76
72096;BME280;59968;51.084;16.748;2024-01-11T08:24:03;101254.92;;;-1.64;62.55
72096;BME280;59968;51.084;16.748;2024-01-11T08:26:33;101258.00;;;-1.56;62.69
72096;BME280;59968;51.084;16.748;2024-01-11T08:29:03;101268.02;;;-1.47;62.65
72096;BME280;59968;51.084;16.748;2024-01-11T08:31:33;101260.74;;;-1.40;62.66
72096;BME280;59968;51.084;16.748;2024-01-11T08:34:05;101258.24;;;-1.29;62.31
72096;BME280;59968;51.084;16.748;2024-01-11T08:36:35;101260.81;;;-1.20;62.03
72096;BME280;59968;51.084;16.748;2024-01-11T08:39:06;101254.92;;;-1.13;61.78
72096;BME280;59968;51.084;16.748;2024-01-11T08:41:37;101257.29;;;-1.04;61.85
72096;BME280;59968;51.084;16.748;2024-01-11T08:44:15;101250.29;;;-0.95;61.83
72096;BME280;59968;51.084;16.748;2024-01-11T08:46:44;101260.30;;;-0.90;61.58
72096;BME280;59968;51.084;16.748;2024-01-11T08:49:13;101250.13;;;-0.90;61.85
72096;BME280;59968;51.084;16.748;2024-01-11T08:51:42;101257.59;;;-0.79;61.94
72096;BME280;59968;51.084;16.748;2024-01-11T08:54:10;101251.95;;;-0.73;61.43
72096;BME280;59968;51.084;16.748;2024-01-11T08:56:40;101253.99;;;-0.65;61.45
72096;BME280;59968;51.084;16.748;2024-01-11T08:59:10;101256.06;;;-0.54;61.15
72096;BME280;59968;51.084;16.748;2024-01-11T09:01:38;101275.33;;;-0.44;60.94
72096;BME280;59968;51.084;16.748;2024-01-11T09:04:11;101283.91;;;-0.46;61.08
72096;BME280;59968;51.084;16.748;2024-01-11T09:06:41;101282.33;;;-0.58;61.48
72096;BME280;59968;51.084;16.748;2024-01-11T09:09:11;101276.26;;;-0.56;61.55
72096;BME280;59968;51.084;16.748;2024-01-11T09:11:41;101281.08;;;-0.52;61.57
72096;BME280;59968;51.084;16.748;2024-01-11T09:14:10;101281.41;;;-0.46;61.61
72096;BME280;59968;51.084;16.748;2024-01-11T09:16:39;101273.77;;;-0.41;61.43
72096;BME280;59968;51.084;16.748;2024-01-11T09:19:08;101269.40;;;-0.36;61.41
72096;BME280;59968;51.084;16.748;2024-01-11T09:21:37;101270.61;;;-0.32;61.01
72096;BME280;59968;51.084;16.748;2024-01-11T09:24:06;101263.27;;;-0.26;60.60
72096;BME280;59968;51.084;16.748;2024-01-11T09:26:34;101254.37;;;-0.19;60.73
72096;BME280;59968;51.084;16.748;2024-01-11T09:29:04;101252.04;;;-0.15;59.70
72096;BME280;59968;51.084;16.748;2024-01-11T09:31:33;101257.44;;;-0.14;58.92
72096;BME280;59968;51.084;16.748;2024-01-11T09:34:02;101250.04;;;-0.10;59.18
72096;BME280;59968;51.084;16.748;2024-01-11T09:36:31;101249.51;;;-0.07;59.23
72096;BME280;59968;51.084;16.748;2024-01-11T09:39:01;101259.10;;;-0.06;58.78
72096;BME280;59968;51.084;16.748;2024-01-11T09:41:31;101263.89;;;-0.06;59.37
72096;BME280;59968;51.084;16.748;2024-01-11T09:44:02;101265.45;;;-0.04;59.47
72096;BME280;59968;51.084;16.748;2024-01-11T09:46:33;101263.44;;;-0.02;59.10
72096;BME280;59968;51.084;16.748;2024-01-11T09:49:02;101267.45;;;-0.01;58.97
72096;BME280;59968;51.084;16.748;2024-01-11T09:51:34;101268.48;;;0.02;59.21
72096;BME280;59968;51.084;16.748;2024-01-11T09:54:16;101266.87;;;0.06;58.90
72096;BME280;59968;51.084;16.748;2024-01-11T09:56:53;101266.34;;;0.09;58.78
72096;BME280;59968;51.084;16.748;2024-01-11T09:59:23;101272.25;;;0.12;58.00
72096;BME280;59968;51.084;16.748;2024-01-11T10:01:53;101269.44;;;0.16;58.14
72096;BME280;59968;51.084;16.748;2024-01-11T10:04:22;101257.60;;;0.20;57.11
72096;BME280;59968;51.084;16.748;2024-01-11T10:06:52;101248.80;;;0.25;56.98
72096;BME280;59968;51.084;16.748;2024-01-11T10:09:22;101248.25;;;0.30;56.93
72096;BME280;59968;51.084;16.748;2024-01-11T10:11:51;101241.33;;;0.37;57.57
72096;BME280;59968;51.084;16.748;2024-01-11T10:14:21;101246.95;;;0.42;57.10
72096;BME280;59968;51.084;16.748;2024-01-11T10:16:50;101240.95;;;0.40;56.21
72096;BME280;59968;51.084;16.748;2024-01-11T10:19:19;101250.33;;;0.50;55.64
72096;BME280;59968;51.084;16.748;2024-01-11T10:21:50;101243.46;;;0.53;55.27
72096;BME280;59968;51.084;16.748;2024-01-11T10:24:19;101236.52;;;0.53;54.44
72096;BME280;59968;51.084;16.748;2024-01-11T10:26:49;101233.91;;;0.56;55.32
72096;BME280;59968;51.084;16.748;2024-01-11T10:29:18;101231.16;;;0.59;55.33
72096;BME280;59968;51.084;16.748;2024-01-11T10:31:47;101226.63;;;0.61;55.22
72096;BME280;59968;51.084;16.748;2024-01-11T10:34:16;101222.17;;;0.64;55.44
72096;BME280;59968;51.084;16.748;2024-01-11T10:36:44;101214.80;;;0.64;54.37
72096;BME280;59968;51.084;16.748;2024-01-11T10:39:16;101218.56;;;0.64;54.31
72096;BME280;59968;51.084;16.748;2024-01-11T10:41:47;101222.34;;;0.64;54.25
72096;BME280;59968;51.084;16.748;2024-01-11T10:44:20;101211.43;;;0.64;54.47
72096;BME280;59968;51.084;16.748;2024-01-11T10:46:55;101210.97;;;0.63;53.90
72096;BME280;59968;51.084;16.748;2024-01-11T10:49:25;101204.25;;;0.62;53.40
72096;BME280;59968;51.084;16.748;2024-01-11T10:51:59;101196.13;;;0.61;53.74
72096;BME280;59968;51.084;16.748;2024-01-11T10:54:28;101199.11;;;0.60;53.43
72096;BME280;59968;51.084;16.748;2024-01-11T10:57:00;101193.94;;;0.56;53.27
72096;BME280;59968;51.084;16.748;2024-01-11T10:59:31;101195.42;;;0.57;53.67
72096;BME280;59968;51.084;16.748;2024-01-11T11:02:04;101202.77;;;0.59;53.92
72096;BME280;59968;51.084;16.748;2024-01-11T11:04:35;101201.33;;;0.62;54.15
72096;BME280;59968;51.084;16.748;2024-01-11T11:07:07;101204.57;;;0.65;54.04
72096;BME280;59968;51.084;16.748;2024-01-11T11:09:37;101195.33;;;0.66;52.92
72096;BME280;59968;51.084;16.748;2024-01-11T11:12:09;101193.59;;;0.63;51.88
72096;BME280;59968;51.084;16.748;2024-01-11T11:14:40;101185.69;;;0.62;51.76
72096;BME280;59968;51.084;16.748;2024-01-11T11:17:09;101180.41;;;0.62;51.74
72096;BME280;59968;51.084;16.748;2024-01-11T11:19:38;101176.84;;;0.64;52.03
72096;BME280;59968;51.084;16.748;2024-01-11T11:22:07;101173.95;;;0.62;50.95
72096;BME280;59968;51.084;16.748;2024-01-11T11:24:36;101171.39;;;0.62;51.14
72096;BME280;59968;51.084;16.748;2024-01-11T11:27:05;101157.40;;;0.63;51.77
72096;BME280;59968;51.084;16.748;2024-01-11T11:29:34;101162.93;;;0.64;52.03
72096;BME280;59968;51.084;16.748;2024-01-11T11:32:03;101160.02;;;0.64;52.20
72096;BME280;59968;51.084;16.748;2024-01-11T11:34:45;101175.45;;;0.65;52.03
72096;BME280;59968;51.084;16.748;2024-01-11T11:37:22;101171.45;;;0.69;53.04
72096;BME280;59968;51.084;16.748;2024-01-11T11:39:51;101167.59;;;0.71;52.85
72096;BME280;59968;51.084;16.748;2024-01-11T11:42:24;101160.10;;;0.75;53.52
72096;BME280;59968;51.084;16.748;2024-01-11T11:44:54;101164.22;;;0.78;53.08
72096;BME280;59968;51.084;16.748;2024-01-11T11:47:23;101172.84;;;0.76;53.18
72096;BME280;59968;51.084;16.748;2024-01-11T11:50:06;101184.45;;;0.78;53.01
72096;BME280;59968;51.084;16.748;2024-01-11T11:52:37;101186.33;;;0.83;53.78
72096;BME280;59968;51.084;16.748;2024-01-11T11:55:07;101180.84;;;0.88;53.46
72096;BME280;59968;51.084;16.748;2024-01-11T11:57:36;101177.64;;;0.95;54.18
72096;BME280;59968;51.084;16.748;2024-01-11T12:00:07;101188.99;;;0.98;53.88
72096;BME280;59968;51.084;16.748;2024-01-11T12:02:40;101189.71;;;1.02;54.09
72096;BME280;59968;51.084;16.748;2024-01-11T12:05:09;101177.57;;;1.03;54.29
72096;BME280;59968;51.084;16.748;2024-01-11T12:07:38;101174.29;;;1.06;54.10
72096;BME280;59968;51.084;16.748;2024-01-11T12:10:07;101177.75;;;1.03;53.77
72096;BME280;59968;51.084;16.748;2024-01-11T12:12:38;101164.36;;;0.97;53.60
72096;BME280;59968;51.084;16.748;2024-01-11T12:15:07;101162.98;;;0.95;53.82
72096;BME280;59968;51.084;16.748;2024-01-11T12:17:36;101154.80;;;0.90;53.47
72096;BME280;59968;51.084;16.748;2024-01-11T12:20:07;101156.94;;;0.82;53.65
72096;BME280;59968;51.084;16.748;2024-01-11T12:22:35;101154.46;;;0.78;54.46
72096;BME280;59968;51.084;16.748;2024-01-11T12:25:04;101157.35;;;0.73;54.05
72096;BME280;59968;51.084;16.748;2024-01-11T12:27:34;101149.13;;;0.72;54.34
72096;BME280;59968;51.084;16.748;2024-01-11T12:30:03;101144.89;;;0.69;54.42
72096;BME280;59968;51.084;16.748;2024-01-11T12:32:32;101142.23;;;0.65;54.58
72096;BME280;59968;51.084;16.748;2024-01-11T12:35:03;101142.78;;;0.67;55.34
72096;BME280;59968;51.084;16.748;2024-01-11T12:37:32;101146.25;;;0.72;55.17
72096;BME280;59968;51.084;16.748;2024-01-11T12:40:01;101150.36;;;0.74;54.91
72096;BME280;59968;51.084;16.748;2024-01-11T12:42:30;101154.30;;;0.73;54.73
72096;BME280;59968;51.084;16.748;2024-01-11T12:44:58;101159.50;;;0.69;54.70
72096;BME280;59968;51.084;16.748;2024-01-11T12:47:27;101153.85;;;0.67;54.96
72096;BME280;59968;51.084;16.748;2024-01-11T12:49:56;101153.50;;;0.62;54.18
72096;BME280;59968;51.084;16.748;2024-01-11T12:52:25;101142.53;;;0.51;53.70
72096;BME280;59968;51.084;16.748;2024-01-11T12:54:56;101153.83;;;0.43;53.96